Tiempo atmosférico en la estación meteorológica de Lliria, València/Valencia (180 m.)



Fecha
DESCASC
Temp. máxima en grados centígrados (hora)
DESCASC
Temp. mínima en grados centígrados (hora)
DESCASC
Temp. media en grados centígrados
DESCASC
Racha de viento máxima en m/sg (hora)
DESCASC
Velocidad máxima media en intervalos de 10 minutos(hora)
DESCASC
Precipitaciones diarias en mm
DESCASC
Precipitaciones de 00:00 a 06:00 en mm
DESCASC
Precipitaciones de 06:00 a 12:00 en mm
DESCASC
Precipitaciones de 12:00 a 18:00 en mm
DESCASC
Precipitaciones de 18:00 a 24:00 en mm
DESCASC
22-08-2019 31.3 (16:10) 15.9 (05:40) 23.6 8.61 (16:10) 5.28 (16:20) 0 0 0 0 0
21-08-2019 24.4 (13:00) 18.5 (23:50) 21.4 6.11 (05:00) 3.61 (19:30) 2.8 0 0 0.2 2.6
20-08-2019 29.7 (14:20) 22 (07:50) 25.9 9.72 (12:50) 6.11 (12:40) 0 0 0 0 0
19-08-2019 32.1 (14:50) 20.1 (06:30) 26.1 10.83 (19:10) 6.67 (18:30) 0 0 0 0 0
18-08-2019 35.6 (14:10) 20.2 (00:00) 27.9 8.61 (16:10) 5.28 (15:20) 0 0 0 0 0
17-08-2019 33.9 (14:20) 19.2 (00:00) 26.6 11.67 (15:10) 5.28 (15:00) 0 0 0 0 0
16-08-2019 32 (14:40) 19.2 (00:00) 25.6 11.67 (16:10) 5.28 (15:00) 0 0 0 0 0
15-08-2019 33.1 (14:00) 17.8 (00:00) 25.4 11.11 (18:20) 7.5 (17:00) 0 0 0 0 0
14-08-2019 32.8 (14:40) 18 (00:00) 25.4 10.83 (17:10) 6.39 (17:00) 0 0 0 0 0
13-08-2019 28.3 (17:30) 19.8 (00:00) 24 8.06 (17:10) 4.72 (18:10) 0 0 0 0 0
12-08-2019 31.7 (13:40) 21.4 (00:00) 26.6 11.11 (19:10) 6.67 (16:30) 0 0 0 0 0
11-08-2019 34.8 (14:10) 23.8 (00:00) 29.3 12.5 (18:10) 6.39 (18:00) 0 0 0 0 0
10-08-2019 35.2 (12:00) 21.8 (00:00) 28.5 11.39 (12:30) 6.67 (12:50) 0 0 0 0 0
09-08-2019 41.1 (16:10) 19 (00:00) 30 12.78 (11:50) 6.67 (11:50) 0 0 0 0 0
08-08-2019 37.9 (14:10) 21 (00:00) 29.5 12.5 (14:10) 7.22 (16:40) 0 0 0 0 0
07-08-2019 39 (15:30) 20 (00:00) 29.5 14.17 (17:10) 7.5 (17:20) 0 0 0 0 0
06-08-2019 33.6 (15:20) 21.7 (00:00) 27.6 8.33 (15:20) 5 (13:50) 0 0 0 0 0
05-08-2019 34.4 (16:00) 18.4 (00:00) 26.4 8.06 (16:20) 5.28 (17:40) 0 0 0 0 0
04-08-2019 33.8 (16:40) 18.4 (00:00) 26.1 8.61 (16:50) 5.28 (18:00) 0 0 0 0 0
03-08-2019 32.8 (14:10) 18.6 (00:00) 25.7 9.17 (18:10) 5 (15:00) 0 0 0 0 0
02-08-2019 31.9 (14:10) 19 (00:00) 25.4 9.72 (17:10) 5.83 (14:50) 0 0 0 0 0
01-08-2019 31.3 (14:10) 18.5 (00:00) 24.9 10.56 (14:30) 6.11 (14:30) 0 0 0 0 0
31-07-2019 28.8 (12:10) 19.4 (00:00) 24.1 10 (13:00) 6.67 (13:00) 0 0 0 0 0
30-07-2019 31.6 (13:00) 19.1 (00:00) 25.4 12.78 (14:10) 6.94 (14:40) 0 0 0 0 0
29-07-2019 34.9 (14:30) 18.2 (00:00) 26.6 10.56 (16:20) 6.39 (16:20) 0 0 0 0 0
28-07-2019 31.4 (14:00) 18.8 (00:00) 25.1 10.83 (14:30) 6.67 (15:00) 0 0 0 0 0
27-07-2019 34.5 (17:10) 18.4 (00:00) 26.4 16.39 (16:10) 8.61 (16:10) 0 0 0 0 0
26-07-2019 34 (15:20) 19.9 (00:00) 26.9 11.94 (16:40) 7.78 (17:20) 0 0 0 0 0

Gráficas

Temp. máximas Temp. mínimas Temp. medias Precipitaciones Rachas de viento máximas Velocidades máximas media en intervalos de 10 minutos

Datos horarios

Fecha y hora oficial Temperatura (ºC) Velocidad del viento (km/h) Dirección del viento Racha (km/h) Dirección de racha Precipitación (mm) Presión (hPa) Tendencia (hPa) Humedad (%)
2019-08-24 23:00:00 22.6 2 Nordeste 9 Este 0 -- -- 76
2019-08-24 22:00:00 24.7 5 Este 10 Este 0 -- -- 67
2019-08-24 21:00:00 26.1 3 Sudeste 15 Sudeste 0 -- -- 58
2019-08-24 20:00:00 28.1 10 Sudeste 23 Sudeste 0 -- -- 51
2019-08-24 19:00:00 29.3 15 Sudeste 28 Este 0 -- -- 48
2019-08-24 18:00:00 30.2 15 Sudeste 34 Sudeste 0 -- -- 45
2019-08-24 17:00:00 31 20 Sudeste 31 Este 0 -- -- 42
2019-08-24 16:00:00 31.7 14 Sudeste 29 Sudeste 0 -- -- 38
2019-08-24 15:00:00 31.8 14 Sudeste 30 Sudeste 0 -- -- 38
2019-08-24 14:00:00 31.6 13 Sudeste 26 Sudeste 0 -- -- 35
2019-08-24 13:00:00 30.3 8 Este 18 Sur 0 -- -- 35
2019-08-24 12:00:00 29.2 7 Sudoeste 17 Sur 0 -- -- 37
2019-08-24 11:00:00 27.1 3 Oeste 9 Oeste 0 -- -- 42
2019-08-24 10:00:00 24.4 2 Noroeste 8 Oeste 0 -- -- 48
2019-08-24 09:00:00 20.8 4 Noroeste 10 Noroeste 0 -- -- 60
2019-08-24 08:00:00 17.7 7 Noroeste 15 Noroeste 0 -- -- 68
2019-08-24 07:00:00 17.4 10 Noroeste 15 Noroeste 0 -- -- 69
2019-08-24 06:00:00 18.1 4 Norte 15 Noroeste 0 -- -- 66
2019-08-24 05:00:00 18.2 8 Noroeste 11 Noroeste 0 -- -- 69
2019-08-24 04:00:00 18.6 4 Noroeste 14 Noroeste 0 -- -- 67
2019-08-24 03:00:00 18.6 8 Noroeste 11 Noroeste 0 -- -- 70
2019-08-24 02:00:00 19.7 6 Noroeste 9 Noroeste 0 -- -- 68
2019-08-24 01:00:00 19.9 6 Noroeste 12 Noroeste 0 -- -- 67
2019-08-24 00:00:00 20.1 5 Noroeste 11 Noroeste 0 -- -- 73
2019-08-23 23:00:00 20.5 3 Norte 11 Noroeste 0 -- -- 74
2019-08-23 22:00:00 22.6 0 Calma 9 Sudeste 0 -- -- 68
2019-08-23 21:00:00 25.4 10 Sudeste 23 Sudeste 0 -- -- 55
2019-08-23 20:00:00 27.8 15 Sudeste 26 Este 0 -- -- 41
2019-08-23 19:00:00 29.9 15 Sudeste 35 Sudeste 0 -- -- 34
2019-08-23 18:00:00 31.2 16 Sudeste 35 Sudeste 0 -- -- 32
2019-08-23 17:00:00 32.4 18 Sudeste 36 Sudeste 0 -- -- 31
2019-08-23 16:00:00 32.8 19 Sudeste 30 Sudeste 0 -- -- 31
2019-08-23 15:00:00 32.9 11 Sudeste 22 Sudeste 0 -- -- 28
2019-08-23 14:00:00 32.3 13 Sur 34 Sur 0 -- -- 28
2019-08-23 13:00:00 31.5 10 Sur 18 Sur 0 -- -- 31
2019-08-23 12:00:00 30.1 5 Oeste 10 Sudoeste 0 -- -- 34
2019-08-23 11:00:00 28 5 Oeste 12 Sudoeste 0 -- -- 36
2019-08-23 10:00:00 24.4 3 Noroeste 13 Noroeste 0 -- -- 51
2019-08-23 09:00:00 20.6 8 Noroeste 13 Oeste 0 -- -- 64
2019-08-23 08:00:00 16.8 5 Noroeste 15 Noroeste 0 -- -- 76
2019-08-23 07:00:00 16.5 13 Noroeste 16 Noroeste 0 -- -- 77
2019-08-23 06:00:00 16.8 8 Noroeste 15 Noroeste 0 -- -- 78
2019-08-23 05:00:00 17.4 10 Noroeste 14 Noroeste 0 -- -- 76
2019-08-23 04:00:00 18 8 Noroeste 14 Noroeste 0 -- -- 74
2019-08-23 03:00:00 18.1 6 Noroeste 10 Noroeste 0 -- -- 75
2019-08-23 02:00:00 18.8 6 Noroeste 9 Noroeste 0 -- -- 75
2019-08-23 01:00:00 19.8 4 Norte 9 Noroeste 0 -- -- 67
2019-08-23 00:00:00 19.8 5 Noroeste 9 Noroeste 0 -- -- 73
2019-08-22 23:00:00 19.9 4 Noroeste 6 Noroeste 0 -- -- 75
2019-08-22 22:00:00 22.2 2 Nordeste 7 Este 0 -- -- 67
2019-08-22 21:00:00 24.6 5 Este 15 Sudeste 0 -- -- 52
2019-08-22 20:00:00 27.3 9 Este 23 Este 0 -- -- 42
2019-08-22 19:00:00 28.6 14 Sudeste 29 Sudeste 0 -- -- 38
2019-08-22 18:00:00 30.1 17 Sudeste 29 Sudeste 0 -- -- 38
2019-08-22 17:00:00 30.7 17 Sudeste 31 Sudeste 0 -- -- 36
2019-08-22 16:00:00 31.1 16 Sudeste 27 Sudeste 0 -- -- 35
2019-08-22 15:00:00 30.9 11 Sudeste 28 Sudeste 0 -- -- 37
2019-08-22 14:00:00 30.2 11 Sudeste 21 Sudeste 0 -- -- 41
2019-08-22 13:00:00 29.2 11 Sudeste 21 Sudeste 0 -- -- 44
2019-08-22 12:00:00 28.1 8 Sudeste 15 Sudeste 0 -- -- 47
2019-08-22 11:00:00 26.4 4 Sudoeste 12 Oeste 0 -- -- 50
2019-08-22 10:00:00 22.9 8 Oeste 15 Noroeste 0 -- -- 63
2019-08-22 09:00:00 19.4 6 Noroeste 18 Noroeste 0 -- -- 76
2019-08-22 08:00:00 16.2 12 Noroeste 18 Noroeste 0 -- -- 87
2019-08-22 07:00:00 16 10 Noroeste 14 Noroeste 0 -- -- 87
2019-08-22 06:00:00 16.2 9 Noroeste 13 Noroeste 0 -- -- 86
2019-08-22 05:00:00 16.2 5 Noroeste 17 Noroeste 0 -- -- 89
2019-08-22 04:00:00 16.7 12 Noroeste 17 Noroeste 0 -- -- 88
2019-08-22 03:00:00 16.9 11 Noroeste 16 Noroeste 0 -- -- 88
2019-08-22 02:00:00 16.9 9 Noroeste 14 Noroeste 0 -- -- 90
2019-08-22 01:00:00 17.7 4 Noroeste 10 Nordeste 0 -- -- 91
2019-08-22 00:00:00 18.5 2 Norte 11 Noroeste 0 -- -- 91
2019-08-21 23:00:00 19.2 4 Noroeste 13 Oeste 0 -- -- 90
2019-08-21 22:00:00 20.5 5 Oeste 18 Norte 0.4 -- -- 87
2019-08-21 21:00:00 21 6 Noroeste 12 Sudoeste 0.2 -- -- 90
2019-08-21 20:00:00 21 9 Noroeste 22 Nordeste 1.2 -- -- 89
2019-08-21 19:00:00 21.8 6 Noroeste 12 Noroeste 0.8 -- -- 89
2019-08-21 18:00:00 23.2 4 Noroeste 16 Noroeste 0 -- -- 77
2019-08-21 17:00:00 23.4 8 Noroeste 14 Norte 0 -- -- 74
2019-08-21 16:00:00 22.8 8 Norte 14 Norte 0 -- -- 77
2019-08-21 15:00:00 23.1 9 Nordeste 14 Este 0.2 -- -- 76
2019-08-21 14:00:00 23.6 7 Este 17 Este 0 -- -- 71
2019-08-21 13:00:00 24.4 6 Este 19 Sudeste 0 -- -- 66
2019-08-21 12:00:00 24.2 12 Sudeste 18 Sudeste 0 -- -- 66
2019-08-21 11:00:00 23.7 10 Sudeste 19 Sudeste 0 -- -- 70
2019-08-21 10:00:00 23.3 8 Este 18 Sudeste 0 -- -- 72
2019-08-21 09:00:00 23 5 Este 13 Este 0 -- -- 72
2019-08-21 08:00:00 22.6 0 Calma 3 Nordeste 0 -- -- 74
2019-08-21 07:00:00 22.3 3 Norte 6 Nordeste 0 -- -- 74
2019-08-21 06:00:00 22.3 5 Nordeste 11 Norte 0 -- -- 74
2019-08-21 05:00:00 22.6 11 Este 22 Este 0 -- -- 74
2019-08-21 04:00:00 23.3 4 Norte 8 Norte 0 -- -- 67
2019-08-21 03:00:00 23.5 4 Norte 8 Noroeste 0 -- -- 66
2019-08-21 02:00:00 23.7 4 Nordeste 7 Nordeste 0 -- -- 65
2019-08-21 01:00:00 23.8 3 Nordeste 5 Nordeste 0 -- -- 64
2019-08-21 00:00:00 23.9 4 Norte 13 Nordeste 0 -- -- 60
2019-08-20 23:00:00 24.1 5 Nordeste 10 Nordeste 0 -- -- 58
2019-08-20 22:00:00 24.2 4 Norte 12 Este 0 -- -- 56
2019-08-20 21:00:00 24.4 7 Nordeste 18 Nordeste 0 -- -- 56
2019-08-20 20:00:00 24.7 12 Nordeste 26 Nordeste 0 -- -- 55
2019-08-20 19:00:00 25.5 12 Nordeste 28 Nordeste 0 -- -- 58
2019-08-20 18:00:00 26.7 13 Nordeste 29 Este 0 -- -- 52
2019-08-20 17:00:00 27 17 Nordeste 32 Nordeste 0 -- -- 53
2019-08-20 16:00:00 27.5 14 Este 33 Este 0 -- -- 57
2019-08-20 15:00:00 29.3 17 Este 31 Este 0 -- -- 55
2019-08-20 14:00:00 29.5 17 Este 33 Este 0 -- -- 57
2019-08-20 13:00:00 28.7 18 Este 35 Sudeste 0 -- -- 63
2019-08-20 12:00:00 29.1 6 Este 16 Sudeste 0 -- -- 58
2019-08-20 11:00:00 28.4 6 Sudeste 16 Sudeste 0 -- -- 61
2019-08-20 10:00:00 27.7 5 Sudeste 11 Sudeste 0 -- -- 64
2019-08-20 09:00:00 25 3 Oeste 11 Noroeste 0 -- -- 74
2019-08-20 08:00:00 22.2 5 Noroeste 10 Noroeste 0 -- -- 87
2019-08-20 07:00:00 23.1 0 Calma 5 Noroeste 0 -- -- 83
2019-08-20 06:00:00 23.2 4 Noroeste 8 Noroeste 0 -- -- 84
2019-08-20 05:00:00 23.3 5 Noroeste 6 Noroeste 0 -- -- 85
2019-08-20 04:00:00 23.3 4 Noroeste 9 Noroeste 0 -- -- 85
2019-08-20 03:00:00 23.7 2 Oeste 7 Sudoeste 0 -- -- 82
2019-08-20 02:00:00 24.1 4 Sudoeste 8 Norte 0 -- -- 80
2019-08-20 01:00:00 24.6 4 Este 12 Este 0 -- -- 78
2019-08-20 00:00:00 24.8 4 Sudeste 13 Sudeste 0 -- -- 78
2019-08-19 23:00:00 25.3 7 Sudeste 13 Sudeste 0 -- -- 79
2019-08-19 22:00:00 25.5 10 Sudeste 21 Sudeste 0 -- -- 76
2019-08-19 21:00:00 26.2 14 Sudeste 27 Sudeste 0 -- -- 74
2019-08-19 20:00:00 26.9 19 Sudeste 39 Sudeste 0 -- -- 73
2019-08-19 19:00:00 28.5 22 Sudeste 38 Sudeste 0 -- -- 67
2019-08-19 18:00:00 30 21 Sudeste 32 Sudeste 0 -- -- 62
2019-08-19 17:00:00 30.6 21 Sudeste 34 Sudeste 0 -- -- 59
2019-08-19 16:00:00 31.1 19 Sudeste 36 Sudeste 0 -- -- 55
2019-08-19 15:00:00 32 19 Sudeste 33 Sudeste 0 -- -- 52
2019-08-19 14:00:00 31.7 15 Sudeste 30 Este 0 -- -- 52
2019-08-19 13:00:00 30.3 14 Sudeste 23 Sudeste 0 -- -- 56
2019-08-19 12:00:00 29.9 10 Sudeste 18 Sudeste 0 -- -- 59
2019-08-19 11:00:00 28.8 8 Sudeste 14 Sudeste 0 -- -- 61
2019-08-19 10:00:00 27.2 3 Oeste 13 Oeste 0 -- -- 67
2019-08-19 09:00:00 25.2 3 Noroeste 6 Norte 0 -- -- 82
2019-08-19 08:00:00 21.2 2 Norte 11 Noroeste 0 -- -- 90
2019-08-19 07:00:00 20.4 8 Noroeste 10 Noroeste 0 -- -- 89
2019-08-19 06:00:00 20.2 7 Noroeste 10 Noroeste 0 -- -- 87
2019-08-19 05:00:00 20.4 4 Noroeste 5 Noroeste 0 -- -- 87
2019-08-19 04:00:00 21.8 0 Calma 8 Noroeste 0 -- -- 82
2019-08-19 03:00:00 21.7 6 Noroeste 8 Noroeste 0 -- -- 84
2019-08-19 02:00:00 22.5 2 Nordeste 5 Noroeste 0 -- -- 86
2019-08-19 01:00:00 23.8 3 Norte 6 Noroeste 0 -- -- 85
2019-08-19 00:00:00 24.3 5 Oeste 8 Noroeste -- -- -- 83
2019-08-18 23:00:00 25.5 3 Oeste 11 Sur 0 -- -- 81
2019-08-18 22:00:00 27 7 Sudoeste 10 Sudoeste 0 -- -- 74
2019-08-18 21:00:00 28.5 3 Sudeste 14 Sudeste 0 -- -- 67
2019-08-18 20:00:00 30.5 9 Este 15 Sudeste 0 -- -- 60
2019-08-18 19:00:00 31.7 9 Sudeste 22 Sudeste 0 -- -- 55
2019-08-18 18:00:00 32.8 10 Este 24 Este 0 -- -- 54
2019-08-18 17:00:00 33.6 17 Sudeste 31 Sudeste 0 -- -- 47
2019-08-18 16:00:00 33.5 16 Sudeste 30 Sudeste 0 -- -- 51
2019-08-18 15:00:00 34.8 17 Sudeste 30 Sudeste 0 -- -- 49
2019-08-18 14:00:00 35 8 Sudeste 19 Sudeste 0 -- -- 38
2019-08-18 13:00:00 33.1 7 Sudeste 17 Sudeste 0 -- -- 45
2019-08-18 12:00:00 31.2 8 Sudeste 13 Sudeste 0 -- -- 50
2019-08-18 11:00:00 28.8 6 Sur 12 Sudeste 0 -- -- 58
2019-08-18 10:00:00 26.7 4 Sudoeste 8 Sur 0 -- -- 66
2019-08-18 09:00:00 23.5 6 Noroeste 10 Noroeste 0 -- -- 76
2019-08-18 08:00:00 20.6 6 Noroeste 11 Noroeste 0 -- -- 84
2019-08-18 07:00:00 20.2 7 Noroeste 9 Noroeste 0 -- -- 88
2019-08-18 06:00:00 20.9 3 Norte 10 Noroeste 0 -- -- 88
2019-08-18 05:00:00 21.7 2 Norte 8 Noroeste 0 -- -- 86
2019-08-18 04:00:00 21.5 6 Noroeste 10 Noroeste 0 -- -- 86
2019-08-18 03:00:00 21.7 4 Noroeste 6 Noroeste 0 -- -- 86
2019-08-18 02:00:00 22.2 2 Noroeste 6 Noroeste 0 -- -- 86
2019-08-18 01:00:00 22.8 5 Oeste 8 Oeste 0 -- -- 85
2019-08-18 00:00:00 23.6 4 Oeste 7 Oeste 0 -- -- 81
2019-08-17 23:00:00 24.9 4 Sudoeste 12 Sudoeste 0 -- -- 75
2019-08-17 22:00:00 25.7 8 Sudoeste 14 Sur 0 -- -- 72
2019-08-17 21:00:00 26.9 9 Sur 14 Sur 0 -- -- 65
2019-08-17 20:00:00 28.7 8 Sur 23 Sudeste 0 -- -- 64
2019-08-17 19:00:00 30 13 Sudeste 28 Sudeste 0 -- -- 60
2019-08-17 18:00:00 31 16 Sudeste 27 Sudeste 0 -- -- 54
2019-08-17 17:00:00 32.2 13 Este 28 Sudeste 0 -- -- 51
2019-08-17 16:00:00 32.2 17 Sudeste 42 Sudeste 0 -- -- 53
2019-08-17 15:00:00 33 19 Sudeste 31 Sudeste 0 -- -- 51
2019-08-17 14:00:00 33.5 9 Sudeste 19 Este 0 -- -- 44
2019-08-17 13:00:00 31.6 7 Este 19 Sudeste 0 -- -- 49
2019-08-17 12:00:00 29.9 9 Sudeste 14 Sur 0 -- -- 54
2019-08-17 11:00:00 28.2 3 Sur 8 Sur 0 -- -- 60
2019-08-17 10:00:00 26.3 0 Calma 6 Sudoeste 0 -- -- 68
2019-08-17 09:00:00 23.2 4 Noroeste 12 Noroeste 0 -- -- 81
2019-08-17 08:00:00 19.7 6 Noroeste 9 Noroeste 0 -- -- 91
2019-08-17 07:00:00 19.2 5 Noroeste 7 Noroeste 0 -- -- 90
2019-08-17 06:00:00 19.7 6 Noroeste 8 Noroeste 0 -- -- 90
2019-08-17 05:00:00 20.6 5 Norte 9 Norte 0 -- -- 88
2019-08-17 04:00:00 20.8 0 Calma 8 Noroeste 0 -- -- 89
2019-08-17 03:00:00 21.5 5 Noroeste 8 Noroeste 0 -- -- 88
2019-08-17 02:00:00 22 6 Noroeste 9 Noroeste 0 -- -- 86
2019-08-17 01:00:00 22.3 6 Noroeste 8 Noroeste 0 -- -- 85
2019-08-17 00:00:00 22.9 5 Noroeste 9 Oeste 0 -- -- 84
2019-08-16 23:00:00 23.9 4 Sudoeste 6 Sur 0 -- -- 80
2019-08-16 22:00:00 24.9 4 Sur 17 Sudeste 0 -- -- 76
2019-08-16 21:00:00 25.6 12 Sudeste 22 Sudeste 0 -- -- 73
2019-08-16 20:00:00 27.5 14 Sudeste 27 Sudeste 0 -- -- 65
2019-08-16 19:00:00 28.7 18 Sudeste 30 Este 0 -- -- 61
2019-08-16 18:00:00 29.8 18 Sudeste 31 Este 0 -- -- 60
2019-08-16 17:00:00 30.1 17 Sudeste 42 Sudeste 0 -- -- 58
2019-08-16 16:00:00 31.6 14 Sudeste 30 Sudeste 0 -- -- 53
2019-08-16 15:00:00 31.6 19 Sudeste 29 Sudeste 0 -- -- 53
2019-08-16 14:00:00 31.6 12 Sudeste 24 Sudeste 0 -- -- 51
2019-08-16 13:00:00 30.4 9 Sudeste 18 Sur 0 -- -- 51
2019-08-16 12:00:00 29.6 9 Sur 14 Sur 0 -- -- 52
2019-08-16 11:00:00 28.5 5 Sudeste 18 Este 0 -- -- 58
2019-08-16 10:00:00 26.1 3 Norte 11 Noroeste 0 -- -- 65
2019-08-16 09:00:00 22.2 8 Noroeste 13 Noroeste 0 -- -- 73
2019-08-16 08:00:00 20.1 10 Noroeste 14 Noroeste 0 -- -- 79
2019-08-16 07:00:00 19.3 7 Noroeste 13 Noroeste 0 -- -- 83
2019-08-16 06:00:00 19.6 8 Noroeste 11 Noroeste 0 -- -- 84
2019-08-16 05:00:00 19.5 4 Noroeste 7 Noroeste 0 -- -- 84
2019-08-16 04:00:00 20.1 4 Noroeste 10 Noroeste 0 -- -- 82
2019-08-16 03:00:00 20.4 7 Noroeste 9 Noroeste 0 -- -- 81
2019-08-16 02:00:00 21.4 4 Norte 8 Noroeste 0 -- -- 76
2019-08-16 01:00:00 21.7 5 Noroeste 7 Noroeste 0 -- -- 78
2019-08-16 00:00:00 22.2 6 Noroeste 8 Oeste 0 -- -- 76
2019-08-15 23:00:00 23.3 4 Oeste 6 Oeste 0 -- -- 70
2019-08-15 22:00:00 25.3 2 Sudeste 17 Sudeste 0 -- -- 62
2019-08-15 21:00:00 26.5 8 Sudeste 26 Este 0 -- -- 60
2019-08-15 20:00:00 28 15 Sudeste 33 Sudeste 0 -- -- 55
2019-08-15 19:00:00 28.8 21 Sudeste 40 Sudeste 0 -- -- 54
2019-08-15 18:00:00 29.4 24 Sudeste 39 Sudeste 0 -- -- 58
2019-08-15 17:00:00 30.5 27 Sudeste 37 Sudeste 0 -- -- 59
2019-08-15 16:00:00 32.1 22 Sudeste 36 Sudeste 0 -- -- 54
2019-08-15 15:00:00 32.4 19 Sudeste 32 Sudeste 0 -- -- 54
2019-08-15 14:00:00 33.1 15 Sudeste 29 Sudeste 0 -- -- 47
2019-08-15 13:00:00 32.2 12 Sur 25 Sur 0 -- -- 41
2019-08-15 12:00:00 31 6 Sudeste 14 Sudeste 0 -- -- 37
2019-08-15 11:00:00 28.9 3 Sudeste 10 Sudeste 0 -- -- 47
2019-08-15 10:00:00 26.3 5 Sudeste 9 Sudeste 0 -- -- 52
2019-08-15 09:00:00 23.3 0 Calma 13 Noroeste 0 -- -- 58
2019-08-15 08:00:00 19.6 9 Noroeste 13 Noroeste 0 -- -- 68
2019-08-15 07:00:00 18.2 7 Noroeste 11 Noroeste 0 -- -- 71
2019-08-15 06:00:00 19.1 4 Noroeste 9 Norte 0 -- -- 73
2019-08-15 05:00:00 18.7 4 Noroeste 5 Noroeste 0 -- -- 74
2019-08-15 04:00:00 19.9 0 Calma 7 Norte 0 -- -- 74
2019-08-15 03:00:00 21.9 6 Norte 10 Norte 0 -- -- 73
2019-08-15 02:00:00 21.6 5 Noroeste 11 Noroeste 0 -- -- 77
2019-08-15 01:00:00 22.5 7 Noroeste 11 Noroeste 0 -- -- 76
2019-08-15 00:00:00 23.3 6 Noroeste 13 Noroeste 0 -- -- 73
2019-08-14 23:00:00 23.9 6 Noroeste 10 Noroeste 0 -- -- 72
2019-08-14 22:00:00 25.1 3 Noroeste 7 Sur 0 -- -- 69
2019-08-14 21:00:00 26.6 6 Sur 22 Sur 0 -- -- 62
2019-08-14 20:00:00 28.2 14 Sur 25 Sudeste 0 -- -- 59
2019-08-14 19:00:00 29.4 17 Sudeste 29 Sudeste 0 -- -- 56
2019-08-14 18:00:00 30.3 20 Sudeste 39 Sudeste 0 -- -- 52
2019-08-14 17:00:00 30.6 23 Sudeste 33 Sudeste 0 -- -- 52
2019-08-14 16:00:00 31.5 19 Sudeste 37 Este 0 -- -- 49
2019-08-14 15:00:00 32.2 21 Sudeste 32 Sudeste 0 -- -- 48
2019-08-14 14:00:00 32 14 Sudeste 25 Sudeste 0 -- -- 44
2019-08-14 13:00:00 30.8 12 Sur 24 Sur 0 -- -- 47
2019-08-14 12:00:00 29.4 8 Sur 14 Sur 0 -- -- 50
2019-08-14 11:00:00 27.7 7 Sudoeste 16 Sur 0 -- -- 56
2019-08-14 10:00:00 25.6 5 Sur 10 Sur 0 -- -- 62
2019-08-14 09:00:00 22.6 2 Oeste 8 Noroeste 0 -- -- 70
2019-08-14 08:00:00 19.1 5 Noroeste 8 Noroeste 0 -- -- 80
2019-08-14 07:00:00 18.4 2 Norte 5 Norte 0 -- -- 86
2019-08-14 06:00:00 18.7 0 Calma 6 Sur 0 -- -- 89
2019-08-14 05:00:00 19.7 3 Norte 6 Noroeste 0 -- -- 85
2019-08-14 04:00:00 20.2 3 Norte 12 Norte 0 -- -- 83
2019-08-14 03:00:00 21.2 7 Norte 11 Norte 0 -- -- 80
2019-08-14 02:00:00 21.5 3 Noroeste 5 Noroeste 0 -- -- 82
2019-08-14 01:00:00 22.2 2 Norte 7 Norte 0 -- -- 79
2019-08-14 00:00:00 22.7 3 Norte 5 Nordeste 0 -- -- 76
2019-08-13 23:00:00 22.7 0 Calma 5 Este 0 -- -- 75
2019-08-13 22:00:00 22.8 3 Este 12 Este 0 -- -- 75
2019-08-13 21:00:00 23.6 10 Sudeste 19 Sudeste 0 -- -- 71
2019-08-13 20:00:00 24.6 15 Sudeste 26 Sudeste 0 -- -- 66
2019-08-13 19:00:00 26.6 17 Sudeste 28 Sudeste 0 -- -- 58
2019-08-13 18:00:00 27.9 11 Sudeste 29 Sudeste 0 -- -- 53
2019-08-13 17:00:00 28.2 12 Sudeste 23 Este 0 -- -- 52
2019-08-13 16:00:00 27.1 7 Sudeste 19 Sudeste 0 -- -- 55
2019-08-13 15:00:00 25.8 6 Este 16 Sudeste 0 -- -- 57
2019-08-13 14:00:00 24.4 9 Este 22 Este 0 -- -- 60
2019-08-13 13:00:00 25.1 12 Sudeste 23 Este 0 -- -- 56
2019-08-13 12:00:00 24.8 7 Este 18 Sudeste 0 -- -- 52
2019-08-13 11:00:00 23.9 4 Noroeste 7 Noroeste 0 -- -- 57
2019-08-13 10:00:00 22.8 3 Oeste 12 Sudoeste 0 -- -- 65
2019-08-13 09:00:00 22.7 4 Norte 10 Oeste 0 -- -- 61
2019-08-13 08:00:00 21.9 5 Noroeste 8 Noroeste 0 -- -- 62
2019-08-13 07:00:00 22.1 4 Norte 6 Norte 0 -- -- 60
2019-08-13 06:00:00 22 0 Calma 9 Sudoeste 0 -- -- 70
2019-08-13 05:00:00 21.9 5 Norte 10 Norte 0 -- -- 63
2019-08-13 04:00:00 21 2 Sudoeste 13 Norte 0 -- -- 72
2019-08-13 03:00:00 20.6 9 Norte 12 Norte 0 -- -- 80
2019-08-13 02:00:00 20.2 6 Noroeste 8 Noroeste 0 -- -- 85
2019-08-13 01:00:00 21.9 3 Norte 8 Nordeste 0 -- -- 79
2019-08-13 00:00:00 22.8 4 Este 8 Sudeste 0 -- -- 77
2019-08-12 23:00:00 23.3 4 Sudeste 13 Sudeste 0 -- -- 76
2019-08-12 22:00:00 23.9 8 Sudeste 24 Sudeste 0 -- -- 72
2019-08-12 21:00:00 24.8 14 Sudeste 27 Sudeste 0 -- -- 69
2019-08-12 20:00:00 26.5 19 Sudeste 40 Sudeste 0 -- -- 65
2019-08-12 19:00:00 27.8 20 Sudeste 33 Sudeste 0 -- -- 58
2019-08-12 18:00:00 28.6 18 Sudeste 34 Sudeste 0 -- -- 55
2019-08-12 17:00:00 28.9 20 Sudeste 37 Sudeste 0 -- -- 53
2019-08-12 16:00:00 30.5 20 Sudeste 37 Sudeste 0 -- -- 43
2019-08-12 15:00:00 31.2 22 Sudeste 39 Sudeste 0 -- -- 39
2019-08-12 14:00:00 30.8 18 Sur 32 Sur 0 -- -- 40
2019-08-12 13:00:00 31.5 12 Sur 23 Sudeste 0 -- -- 41
2019-08-12 12:00:00 29.8 12 Sur 19 Sudoeste 0 -- -- 43
2019-08-12 11:00:00 28.8 6 Sudoeste 15 Sudoeste 0 -- -- 43
2019-08-12 10:00:00 26.1 5 Noroeste 19 Oeste 0 -- -- 52
2019-08-12 09:00:00 24.3 10 Noroeste 20 Noroeste 0 -- -- 52
2019-08-12 08:00:00 22 5 Noroeste 11 Noroeste 0 -- -- 68
2019-08-12 07:00:00 21.7 0 Calma 8 Noroeste 0 -- -- 84
2019-08-12 06:00:00 21.7 2 Noroeste 11 Noroeste 0 -- -- 86
2019-08-12 05:00:00 22 5 Noroeste 13 Noroeste 0 -- -- 84
2019-08-12 04:00:00 21.6 9 Noroeste 11 Noroeste 0 -- -- 87
2019-08-12 03:00:00 21.8 4 Noroeste 8 Noroeste 0 -- -- 86
2019-08-12 02:00:00 22.3 0 Calma 8 Noroeste 0 -- -- 86
2019-08-12 01:00:00 23.2 6 Noroeste 8 Noroeste 0 -- -- 84
2019-08-12 00:00:00 24 5 Noroeste 7 Oeste 0 -- -- 85
2019-08-11 23:00:00 25.3 5 Oeste 6 Oeste 0 -- -- 81
2019-08-11 22:00:00 26.4 4 Sudoeste 10 Sur 0 -- -- 77
2019-08-11 21:00:00 27.4 8 Sur 24 Sudeste 0 -- -- 73
2019-08-11 20:00:00 28.3 15 Sudeste 32 Este 0 -- -- 66
2019-08-11 19:00:00 29.6 20 Sudeste 45 Sudeste 0 -- -- 62
2019-08-11 18:00:00 31.4 23 Sudeste 35 Sudeste 0 -- -- 59
2019-08-11 17:00:00 33.8 19 Sudeste 33 Sudeste 0 -- -- 48
2019-08-11 16:00:00 34.5 18 Sudeste 33 Sudeste 0 -- -- 46
2019-08-11 15:00:00 34.4 20 Sudeste 33 Sudeste 0 -- -- 48
2019-08-11 14:00:00 34.4 14 Sudeste 28 Sudeste 0 -- -- 44
2019-08-11 13:00:00 33.3 5 Sur 17 Sudoeste 0 -- -- 45
2019-08-11 12:00:00 31.1 6 Sudeste 16 Sudoeste 0 -- -- 55
2019-08-11 11:00:00 29.3 6 Oeste 14 Sur 0 -- -- 62
2019-08-11 10:00:00 27.2 4 Oeste 10 Oeste 0 -- -- 74
2019-08-11 09:00:00 25.4 3 Oeste 7 Oeste 0 -- -- 85
2019-08-11 08:00:00 24.1 2 Noroeste 6 Sudeste 0 -- -- 88
2019-08-11 07:00:00 24 4 Sudoeste 8 Sur 0 -- -- 89
2019-08-11 06:00:00 24.5 3 Norte 8 Norte 0 -- -- 86
2019-08-11 05:00:00 24.6 4 Noroeste 6 Noroeste 0 -- -- 89
2019-08-11 04:00:00 24.3 0 Calma 3 Noroeste 0 -- -- 86
2019-08-11 03:00:00 23.8 3 Noroeste 6 Nordeste 0 -- -- 86
2019-08-11 02:00:00 24.1 3 Norte 5 Nordeste 0 -- -- 85
2019-08-11 01:00:00 24.3 0 Calma 3 Sudoeste 0 -- -- 85
2019-08-11 00:00:00 25.1 2 Sudoeste 5 Sudoeste 0 -- -- 84
2019-08-10 23:00:00 26.1 0 Calma 6 Sudeste 0 -- -- 81
2019-08-10 22:00:00 27 4 Sudeste 15 Sur 0 -- -- 78
2019-08-10 21:00:00 27.9 10 Sudeste 21 Sudeste 0 -- -- 73
2019-08-10 20:00:00 29.8 16 Sudeste 29 Sudeste 0 -- -- 62
2019-08-10 19:00:00 31.8 17 Sudeste 29 Sudeste 0 -- -- 50
2019-08-10 18:00:00 33.1 18 Sudeste 34 Sudeste 0 -- -- 46
2019-08-10 17:00:00 33.7 19 Sudeste 36 Sudeste 0 -- -- 45
2019-08-10 16:00:00 33.8 21 Sudeste 33 Sudeste 0 -- -- 44
2019-08-10 15:00:00 34.6 17 Sudeste 32 Sur 0 -- -- 43
2019-08-10 14:00:00 33.9 22 Sudeste 40 Sudeste 0 -- -- 49
2019-08-10 13:00:00 33.5 23 Sudeste 41 Sudeste 0 -- -- 49
2019-08-10 12:00:00 35.2 10 Sudeste 21 Sur 0 -- -- 36
2019-08-10 11:00:00 33.4 8 Sudeste 17 Sudeste 0 -- -- 40
2019-08-10 10:00:00 31.4 4 Sudeste 11 Sur 0 -- -- 42
2019-08-10 09:00:00 27.6 0 Calma 5 Nordeste 0 -- -- 48
2019-08-10 08:00:00 23.3 3 Norte 9 Norte 0 -- -- 57
2019-08-10 07:00:00 22.5 3 Norte 12 Noroeste 0 -- -- 62
2019-08-10 06:00:00 24.1 7 Noroeste 10 Oeste 0 -- -- 56
2019-08-10 05:00:00 24.1 2 Norte 10 Noroeste 0 -- -- 54
2019-08-10 04:00:00 27.7 9 Noroeste 18 Noroeste 0 -- -- 43
2019-08-10 03:00:00 27.1 11 Noroeste 18 Noroeste 0 -- -- 44
2019-08-10 02:00:00 25.6 10 Noroeste 12 Noroeste 0 -- -- 48
2019-08-10 01:00:00 26.1 7 Noroeste 11 Noroeste 0 -- -- 47
2019-08-10 00:00:00 27 5 Noroeste 9 Noroeste 0 -- -- 47
2019-08-09 23:00:00 29.9 4 Norte 11 Oeste 0 -- -- 40
2019-08-09 22:00:00 34.4 8 Oeste 22 Oeste 0 -- -- 29
2019-08-09 21:00:00 36.6 17 Oeste 36 Sudoeste 0 -- -- 25
2019-08-09 20:00:00 38.7 22 Sudoeste 44 Sudoeste 0 -- -- 24
2019-08-09 19:00:00 40.1 21 Oeste 38 Sudoeste 0 -- -- 21
2019-08-09 18:00:00 40.7 22 Oeste 38 Oeste 0 -- -- 19
2019-08-09 17:00:00 41 21 Sudoeste 42 Sur 0 -- -- 21
2019-08-09 16:00:00 40.7 17 Oeste 39 Oeste 0 -- -- 20
2019-08-09 15:00:00 40.1 19 Oeste 31 Oeste 0 -- -- 21
2019-08-09 14:00:00 39.1 18 Noroeste 37 Oeste 0 -- -- 24
2019-08-09 13:00:00 38.2 18 Oeste 37 Oeste 0 -- -- 24
2019-08-09 12:00:00 36.7 23 Oeste 46 Oeste 0 -- -- 25
2019-08-09 11:00:00 34.9 13 Oeste 27 Oeste 0 -- -- 28
2019-08-09 10:00:00 30.9 3 Sudeste 7 Sudeste 0 -- -- 36
2019-08-09 09:00:00 26.3 3 Nordeste 8 Norte 0 -- -- 46
2019-08-09 08:00:00 20.9 4 Noroeste 13 Noroeste 0 -- -- 61
2019-08-09 07:00:00 19.1 4 Noroeste 7 Noroeste 0 -- -- 66
2019-08-09 06:00:00 19.6 3 Norte 5 Norte 0 -- -- 70
2019-08-09 05:00:00 20.7 6 Norte 13 Noroeste 0 -- -- 64
2019-08-09 04:00:00 21.2 8 Noroeste 12 Noroeste 0 -- -- 62
2019-08-09 03:00:00 22 5 Noroeste 8 Noroeste 0 -- -- 59
2019-08-09 02:00:00 22 2 Norte 9 Noroeste 0 -- -- 63
2019-08-09 01:00:00 22.3 3 Norte 6 Norte 0 -- -- 61
2019-08-09 00:00:00 24.5 4 Norte 12 Noroeste 0 -- -- 52
2019-08-08 23:00:00 24.8 8 Noroeste 12 Noroeste 0 -- -- 56
2019-08-08 22:00:00 25.5 5 Noroeste 6 Noroeste 0 -- -- 56
2019-08-08 21:00:00 30.2 0 Calma 15 Este 0 -- -- 46
2019-08-08 20:00:00 31.4 10 Sudeste 24 Este 0 -- -- 41
2019-08-08 19:00:00 32.6 13 Sudeste 30 Este 0 -- -- 39
2019-08-08 18:00:00 33.2 18 Sudeste 35 Este 0 -- -- 44
2019-08-08 17:00:00 34.6 22 Este 38 Sudeste 0 -- -- 35
2019-08-08 16:00:00 36.6 21 Sudeste 40 Sudeste 0 -- -- 29
2019-08-08 15:00:00 37.4 20 Sudeste 45 Sur 0 -- -- 28
2019-08-08 14:00:00 37.7 10 Sudoeste 25 Sudeste 0 -- -- 23
2019-08-08 13:00:00 36.4 9 Sudeste 17 Sudeste 0 -- -- 23
2019-08-08 12:00:00 34.8 10 Sudeste 18 Sudeste 0 -- -- 27
2019-08-08 11:00:00 32.7 7 Sudeste 11 Sudeste 0 -- -- 29
2019-08-08 10:00:00 30.1 3 Noroeste 10 Oeste 0 -- -- 36
2019-08-08 09:00:00 26.4 4 Norte 8 Nordeste 0 -- -- 47
2019-08-08 08:00:00 22.5 6 Este 11 Noroeste 0 -- -- 60
2019-08-08 07:00:00 22.1 9 Noroeste 17 Noroeste 0 -- -- 77
2019-08-08 06:00:00 21 6 Noroeste 8 Noroeste 0 -- -- 85
2019-08-08 05:00:00 21.9 2 Noroeste 10 Norte 0 -- -- 85
2019-08-08 04:00:00 22.5 4 Norte 9 Noroeste 0 -- -- 90
2019-08-08 03:00:00 23 6 Noroeste 9 Noroeste 0 -- -- 88
2019-08-08 02:00:00 23.9 3 Noroeste 8 Sudoeste 0 -- -- 87
2019-08-08 01:00:00 25.1 6 Norte 9 Norte 0 -- -- 84
2019-08-08 00:00:00 25.2 2 Sudoeste 4 Sudeste 0 -- -- 83
2019-08-07 23:00:00 26.2 2 Sur 8 Sur 0 -- -- 81
2019-08-07 22:00:00 26.7 7 Sur 11 Sur 0 -- -- 78
2019-08-07 21:00:00 27.5 5 Sudeste 10 Sur 0 -- -- 74
2019-08-07 20:00:00 28.2 9 Sur 23 Sudeste 0 -- -- 71
2019-08-07 19:00:00 30 15 Sudeste 34 Sudeste 0 -- -- 64
2019-08-07 18:00:00 31 23 Sudeste 51 Sudeste 0 -- -- 59
2019-08-07 17:00:00 34.8 26 Sudeste 39 Sudeste 0 -- -- 43
2019-08-07 16:00:00 36.4 17 Sudeste 30 Este 0 -- -- 35
2019-08-07 15:00:00 38.4 9 Sudoeste 19 Sudoeste 0 -- -- 21
2019-08-07 14:00:00 36.2 7 Sudeste 19 Sur 0 -- -- 27
2019-08-07 13:00:00 34 6 Sur 13 Sudeste 0 -- -- 35
2019-08-07 12:00:00 30.1 3 Sudeste 8 Nordeste 0 -- -- 50
2019-08-07 11:00:00 27.3 2 Este 7 Sudeste 0 -- -- 65
2019-08-07 10:00:00 24.9 0 Calma 5 Sudeste 0 -- -- 81
2019-08-07 09:00:00 23.1 0 Calma 6 Noroeste 0 -- -- 90
2019-08-07 08:00:00 20.6 3 Noroeste 7 Norte 0 -- -- 86
2019-08-07 07:00:00 20.1 0 Calma 10 Norte 0 -- -- 83
2019-08-07 06:00:00 20.3 4 Norte 12 Noroeste 0 -- -- 81
2019-08-07 05:00:00 20 9 Noroeste 10 Noroeste 0 -- -- 90
2019-08-07 04:00:00 21.1 4 Noroeste 6 Noroeste 0 -- -- 88
2019-08-07 03:00:00 21.9 6 Noroeste 9 Noroeste 0 -- -- 90
2019-08-07 02:00:00 22.5 3 Norte 6 Noroeste 0 -- -- 90
2019-08-07 01:00:00 23.5 2 Norte 5 Norte 0 -- -- 87
2019-08-07 00:00:00 24.1 2 Sudoeste 6 Sudoeste 0 -- -- 86
2019-08-06 23:00:00 25.3 0 Calma 4 Nordeste 0 -- -- 82
2019-08-06 22:00:00 26.1 2 Este 11 Sudeste 0 -- -- 80
2019-08-06 21:00:00 27.4 7 Sudeste 16 Este 0 -- -- 74
2019-08-06 20:00:00 29.6 8 Este 21 Sudeste 0 -- -- 65
2019-08-06 19:00:00 30.5 15 Sudeste 25 Sudeste 0 -- -- 62
2019-08-06 18:00:00 32.2 16 Sudeste 27 Sudeste 0 -- -- 57
2019-08-06 17:00:00 33.1 15 Sudeste 27 Este 0 -- -- 53
2019-08-06 16:00:00 33.5 14 Sudeste 30 Sudeste 0 -- -- 53
2019-08-06 15:00:00 33.3 14 Sudeste 28 Sudeste 0 -- -- 55
2019-08-06 14:00:00 33.1 15 Sudeste 28 Sudeste 0 -- -- 55
2019-08-06 13:00:00 32.9 10 Sudeste 20 Sudeste 0 -- -- 54
2019-08-06 12:00:00 30.9 6 Sudeste 15 Sudeste 0 -- -- 57
2019-08-06 11:00:00 29 5 Sur 14 Sudeste 0 -- -- 63
2019-08-06 10:00:00 27.3 5 Sur 12 Sur 0 -- -- 69
2019-08-06 09:00:00 25.1 0 Calma 5 Noroeste 0 -- -- 79
2019-08-06 08:00:00 22.3 3 Norte 9 Norte 0 -- -- 88
2019-08-06 07:00:00 21.8 5 Norte 7 Norte 0 -- -- 89
2019-08-06 06:00:00 22.1 3 Norte 5 Oeste 0 -- -- 91
2019-08-06 05:00:00 22.3 0 Calma 3 Norte 0 -- -- 89
2019-08-06 04:00:00 23 0 Calma 3 Norte 0 -- -- 87
2019-08-06 03:00:00 24.1 0 Calma 5 Nordeste 0 -- -- 85
2019-08-06 02:00:00 24.7 0 Calma 6 Sudeste 0 -- -- 84
2019-08-06 01:00:00 24.9 4 Sur 8 Sur 0 -- -- 83
2019-08-06 00:00:00 24.9 2 Sudeste 6 Sur 0 -- -- 81
2019-08-05 23:00:00 25.1 0 Calma 8 Sudeste 0 -- -- 78
2019-08-05 22:00:00 25.4 6 Sudeste 9 Sudeste 0 -- -- 77
2019-08-05 21:00:00 26.4 5 Este 21 Sudeste 0 -- -- 72
2019-08-05 20:00:00 28.1 12 Sudeste 26 Sudeste 0 -- -- 67
2019-08-05 19:00:00 29.7 16 Sudeste 26 Sudeste 0 -- -- 62
2019-08-05 18:00:00 31.6 18 Sudeste 27 Sudeste 0 -- -- 54
2019-08-05 17:00:00 33.5 14 Sudeste 29 Sudeste 0 -- -- 48
2019-08-05 16:00:00 34.4 11 Sudeste 22 Sudeste 0 -- -- 44
2019-08-05 15:00:00 33.3 8 Sudeste 23 Sudeste 0 -- -- 43
2019-08-05 14:00:00 32.5 8 Sudeste 24 Sudeste -- -- -- 46
2019-08-05 13:00:00 31 7 Este 19 Sudeste 0 -- -- 50
2019-08-05 12:00:00 29.5 8 Sur 24 Sur 0 -- -- 55
2019-08-05 11:00:00 28.2 7 Sur 18 Sudeste 0 -- -- 57
2019-08-05 10:00:00 26.4 4 Sur 10 Sur 0 -- -- 58
2019-08-05 09:00:00 23.3 0 Calma 3 Sudoeste 0 -- -- 58
2019-08-05 08:00:00 19.4 0 Calma 9 Noroeste 0 -- -- 73
2019-08-05 07:00:00 19 3 Noroeste 6 Nordeste 0 -- -- 73
2019-08-05 06:00:00 19.7 3 Norte 7 Noroeste 0 -- -- 70
2019-08-05 05:00:00 20.6 5 Noroeste 11 Noroeste 0 -- -- 66
2019-08-05 04:00:00 21.4 3 Norte 9 Noroeste 0 -- -- 63
2019-08-05 03:00:00 21 5 Noroeste 9 Noroeste 0 -- -- 67
2019-08-05 02:00:00 20.8 6 Noroeste 8 Noroeste 0 -- -- 71
2019-08-05 01:00:00 22.2 4 Noroeste 10 Noroeste 0 -- -- 69
2019-08-05 00:00:00 21.8 4 Noroeste 8 Noroeste 0 -- -- 73
2019-08-04 23:00:00 23.2 4 Norte 5 Noroeste 0 -- -- 68
2019-08-04 22:00:00 25 4 Sudoeste 14 Sudeste 0 -- -- 65
2019-08-04 21:00:00 27.2 9 Sudeste 21 Sudeste 0 -- -- 56
2019-08-04 20:00:00 29 12 Sudeste 26 Sudeste 0 -- -- 55
2019-08-04 19:00:00 30.3 16 Sudeste 28 Sudeste 0 -- -- 53
2019-08-04 18:00:00 32.1 19 Sudeste 28 Sudeste 0 -- -- 45
2019-08-04 17:00:00 33.5 18 Sudeste 31 Sudeste 0 -- -- 42
2019-08-04 16:00:00 33.6 14 Sudeste 28 Sudeste 0 -- -- 45
2019-08-04 15:00:00 32.6 15 Sudeste 25 Sudeste 0 -- -- 50
2019-08-04 14:00:00 32.6 11 Sur 24 Sudeste 0 -- -- 49
2019-08-04 13:00:00 32 12 Sudeste 23 Sudeste 0 -- -- 41
2019-08-04 12:00:00 30.8 6 Sudeste 15 Este 0 -- -- 40
2019-08-04 11:00:00 28.4 6 Este 11 Este 0 -- -- 45
2019-08-04 10:00:00 26.7 4 Sur 7 Sur 0 -- -- 51
2019-08-04 09:00:00 23.7 0 Calma 4 Norte 0 -- -- 57
2019-08-04 08:00:00 19.3 2 Norte 5 Noroeste 0 -- -- 70
2019-08-04 07:00:00 19 0 Calma 6 Noroeste 0 -- -- 72
2019-08-04 06:00:00 20.6 3 Norte 13 Noroeste 0 -- -- 66
2019-08-04 05:00:00 20.4 7 Noroeste 12 Noroeste 0 -- -- 68
2019-08-04 04:00:00 21.1 6 Norte 12 Noroeste 0 -- -- 63
2019-08-04 03:00:00 21 5 Noroeste 11 Noroeste 0 -- -- 71
2019-08-04 02:00:00 21.2 6 Noroeste 12 Noroeste 0 -- -- 67
2019-08-04 01:00:00 22 8 Noroeste 12 Noroeste 0 -- -- 69
2019-08-04 00:00:00 21.7 4 Noroeste 7 Noroeste 0 -- -- 72
2019-08-03 23:00:00 23 0 Calma 5 Norte 0 -- -- 69
2019-08-03 22:00:00 25.5 3 Nordeste 12 Sudeste 0 -- -- 59
2019-08-03 21:00:00 27.2 6 Este 24 Este 0 -- -- 52
2019-08-03 20:00:00 29.3 11 Sudeste 23 Este 0 -- -- 47
2019-08-03 19:00:00 30.4 12 Sudeste 33 Este 0 -- -- 46
2019-08-03 18:00:00 31.1 14 Sudeste 28 Sudeste 0 -- -- 49
2019-08-03 17:00:00 31.8 18 Sudeste 31 Este 0 -- -- 46
2019-08-03 16:00:00 32.6 14 Sudeste 29 Sudeste 0 -- -- 43
2019-08-03 15:00:00 32.7 18 Sudeste 30 Sudeste 0 -- -- 43
2019-08-03 14:00:00 32.4 8 Sudeste 21 Sudeste 0 -- -- 45
2019-08-03 13:00:00 31.5 11 Sudeste 22 Sur 0 -- -- 46
2019-08-03 12:00:00 30.3 10 Sudeste 18 Sudeste 0 -- -- 46
2019-08-03 11:00:00 28.4 4 Sudoeste 9 Sudeste 0 -- -- 47
2019-08-03 10:00:00 26 2 Este 7 Nordeste 0 -- -- 59
2019-08-03 09:00:00 23.4 2 Este 11 Noroeste 0 -- -- 63
2019-08-03 08:00:00 19.8 7 Noroeste 10 Noroeste 0 -- -- 76
2019-08-03 07:00:00 19.1 5 Noroeste 10 Noroeste 0 -- -- 81
2019-08-03 06:00:00 19.2 5 Noroeste 10 Noroeste 0 -- -- 84
2019-08-03 05:00:00 20.2 8 Noroeste 13 Noroeste 0 -- -- 79
2019-08-03 04:00:00 20.4 9 Noroeste 13 Noroeste 0 -- -- 80
2019-08-03 03:00:00 19.7 6 Noroeste 9 Noroeste 0 -- -- 81
2019-08-03 02:00:00 20.2 4 Noroeste 10 Noroeste 0 -- -- 79
2019-08-03 01:00:00 20.6 4 Norte 8 Noroeste 0 -- -- 78
2019-08-03 00:00:00 22 4 Noroeste 6 Norte 0 -- -- 72
2019-08-02 23:00:00 22.6 0 Calma 5 Sudeste 0 -- -- 72
2019-08-02 22:00:00 25.2 3 Este 9 Sur 0 -- -- 60
2019-08-02 21:00:00 26.6 8 Sur 25 Sudeste 0 -- -- 55
2019-08-02 20:00:00 28.4 17 Sudeste 30 Sudeste 0 -- -- 49
2019-08-02 19:00:00 30 19 Sudeste 31 Sudeste 0 -- -- 43
2019-08-02 18:00:00 31.2 21 Sudeste 35 Sudeste 0 -- -- 41
2019-08-02 17:00:00 31.7 15 Sudeste 28 Sudeste 0 -- -- 36
2019-08-02 16:00:00 31.1 18 Sudeste 32 Sudeste 0 -- -- 40
2019-08-02 15:00:00 31.4 21 Sudeste 33 Este 0 -- -- 39
2019-08-02 14:00:00 31.8 14 Sudeste 29 Sudeste 0 -- -- 41
2019-08-02 13:00:00 30.7 11 Sudeste 23 Sur 0 -- -- 49
2019-08-02 12:00:00 29.4 9 Sudeste 22 Sudeste 0 -- -- 53
2019-08-02 11:00:00 27.7 8 Sur 13 Sur 0 -- -- 60
2019-08-02 10:00:00 25.6 5 Sudoeste 10 Sudoeste 0 -- -- 67
2019-08-02 09:00:00 23.1 3 Noroeste 6 Noroeste 0 -- -- 77
2019-08-02 08:00:00 19.9 3 Oeste 12 Nordeste 0 -- -- 88
2019-08-02 07:00:00 19.5 4 Nordeste 8 Noroeste 0 -- -- 88
2019-08-02 06:00:00 19.5 4 Noroeste 9 Norte 0 -- -- 87
2019-08-02 05:00:00 19.7 3 Norte 4 Noroeste 0 -- -- 87
2019-08-02 04:00:00 20.3 0 Calma 7 Norte 0 -- -- 85
2019-08-02 03:00:00 21.1 4 Norte 6 Noroeste 0 -- -- 82
2019-08-02 02:00:00 21.2 4 Noroeste 8 Noroeste 0 -- -- 82
2019-08-02 01:00:00 22 3 Norte 8 Norte 0 -- -- 80
2019-08-02 00:00:00 22.2 0 Calma 2 Nordeste 0 -- -- 80
2019-08-01 23:00:00 24 0 Calma 5 Este 0 -- -- 74
2019-08-01 22:00:00 24.5 3 Sudeste 16 Sudeste 0 -- -- 72
2019-08-01 21:00:00 25.9 9 Sudeste 23 Este 0 -- -- 65
2019-08-01 20:00:00 27.7 14 Sudeste 24 Sudeste 0 -- -- 61
2019-08-01 19:00:00 29.4 14 Sudeste 23 Sudeste 0 -- -- 56
2019-08-01 18:00:00 29.7 9 Sur 26 Sudeste 0 -- -- 54
2019-08-01 17:00:00 29.2 11 Sudeste 32 Sudeste 0 -- -- 56
2019-08-01 16:00:00 28.4 19 Sudeste 34 Sudeste 0 -- -- 59
2019-08-01 15:00:00 30.4 18 Sudeste 38 Sudeste 0 -- -- 53
2019-08-01 14:00:00 31.1 12 Sur 23 Sur 0 -- -- 42
2019-08-01 13:00:00 30.4 6 Sur 19 Sudeste 0 -- -- 47
2019-08-01 12:00:00 28.5 7 Sudeste 14 Sudeste 0 -- -- 51
2019-08-01 11:00:00 27.5 4 Sur 12 Sur 0 -- -- 56
2019-08-01 10:00:00 25.8 4 Sudoeste 13 Oeste 0 -- -- 61
2019-08-01 09:00:00 22.9 5 Noroeste 9 Noroeste 0 -- -- 77
2019-08-01 08:00:00 19.5 4 Noroeste 11 Noroeste 0 -- -- 87
2019-08-01 07:00:00 18.5 6 Noroeste 12 Noroeste 0 -- -- 91
2019-08-01 06:00:00 18.9 9 Noroeste 13 Noroeste 0 -- -- 91
2019-08-01 05:00:00 18.9 8 Noroeste 12 Noroeste 0 -- -- 90
2019-08-01 04:00:00 19.2 3 Norte 5 Norte 0 -- -- 88
2019-08-01 03:00:00 19.9 0 Calma 7 Noroeste 0 -- -- 86
2019-08-01 02:00:00 20.8 4 Noroeste 8 Noroeste 0 -- -- 85
2019-08-01 01:00:00 21.4 4 Norte 6 Sudoeste 0 -- -- 83
2019-08-01 00:00:00 22.3 5 Sudoeste 8 Sudoeste 0 -- -- 81
2019-07-31 23:00:00 23 0 Calma 15 Sudeste 0 -- -- 77
2019-07-31 22:00:00 23.7 8 Sudeste 21 Sudeste 0 -- -- 73
2019-07-31 21:00:00 25.1 16 Sudeste 25 Sudeste 0 -- -- 64
2019-07-31 20:00:00 27.2 15 Sudeste 27 Sudeste 0 -- -- 57
2019-07-31 19:00:00 28.1 15 Sudeste 31 Sudeste 0 -- -- 54
2019-07-31 18:00:00 28.1 18 Sudeste 28 Sudeste 0 -- -- 57
2019-07-31 17:00:00 26.9 9 Este 24 Este 0 -- -- 63
2019-07-31 16:00:00 26.2 12 Este 24 Este 0 -- -- 65
2019-07-31 15:00:00 25.1 14 Este 30 Este 0 -- -- 69
2019-07-31 14:00:00 25.2 16 Este 34 Sudeste 0 -- -- 67
2019-07-31 13:00:00 27.5 24 Sudeste 36 Sudeste 0 -- -- 58
2019-07-31 12:00:00 28.5 12 Este 33 Sudeste 0 -- -- 50
2019-07-31 11:00:00 27.9 12 Este 27 Sudeste 0 -- -- 50
2019-07-31 10:00:00 26.9 14 Este 26 Este 0 -- -- 56
2019-07-31 09:00:00 25.1 8 Nordeste 12 Este 0 -- -- 59
2019-07-31 08:00:00 22 5 Norte 8 Norte 0 -- -- 69
2019-07-31 07:00:00 21 0 Calma 5 Oeste 0 -- -- 79
2019-07-31 06:00:00 21.1 3 Noroeste 9 Noroeste 0 -- -- 76
2019-07-31 05:00:00 19.8 6 Noroeste 11 Noroeste 0 -- -- 84
2019-07-31 04:00:00 19.7 5 Noroeste 6 Noroeste 0 -- -- 89
2019-07-31 03:00:00 20 4 Noroeste 9 Noroeste 0 -- -- 89
2019-07-31 02:00:00 20.4 3 Noroeste 5 Noroeste 0 -- -- 87
2019-07-31 01:00:00 20.8 6 Noroeste 8 Noroeste 0 -- -- 87
2019-07-31 00:00:00 21.9 3 Norte 4 Norte 0 -- -- 83
2019-07-30 23:00:00 23.6 2 Norte 14 Sudeste 0 -- -- 78
2019-07-30 22:00:00 24.2 8 Sudeste 21 Sudeste 0 -- -- 75
2019-07-30 21:00:00 25.3 13 Sudeste 27 Sudeste 0 -- -- 71
2019-07-30 20:00:00 26.6 15 Sudeste 30 Sudeste 0 -- -- 66
2019-07-30 19:00:00 27.4 20 Sudeste 37 Sur 0 -- -- 61
2019-07-30 18:00:00 29.2 21 Sudeste 33 Sudeste 0 -- -- 56
2019-07-30 17:00:00 29.9 20 Sudeste 35 Sudeste 0 -- -- 52
2019-07-30 16:00:00 30.2 24 Sudeste 40 Sudeste 0 -- -- 51
2019-07-30 15:00:00 30.8 22 Sudeste 46 Sudeste 0 -- -- 49
2019-07-30 14:00:00 31.1 22 Sudeste 35 Sudeste 0 -- -- 48
2019-07-30 13:00:00 31.6 13 Sudeste 22 Sudeste 0 -- -- 44
2019-07-30 12:00:00 30.2 12 Sur 19 Sudeste 0 -- -- 46
2019-07-30 11:00:00 28.9 6 Sur 18 Sur 0 -- -- 51
2019-07-30 10:00:00 27.4 3 Oeste 8 Noroeste 0 -- -- 56
2019-07-30 09:00:00 24.4 4 Noroeste 10 Noroeste 0 -- -- 69
2019-07-30 08:00:00 20.4 8 Noroeste 10 Noroeste 0 -- -- 79
2019-07-30 07:00:00 20.1 4 Nordeste 8 Nordeste 0 -- -- 77
2019-07-30 06:00:00 19.6 4 Norte 10 Noroeste 0 -- -- 70
2019-07-30 05:00:00 19.1 9 Noroeste 12 Noroeste 0 -- -- 72
2019-07-30 04:00:00 19.1 5 Noroeste 9 Noroeste 0 -- -- 73
2019-07-30 03:00:00 21.4 5 Norte 10 Noroeste 0 -- -- 62
2019-07-30 02:00:00 21.2 6 Noroeste 10 Noroeste 0 -- -- 65
2019-07-30 01:00:00 22.7 6 Noroeste 11 Noroeste 0 -- -- 67
2019-07-30 00:00:00 23.3 6 Noroeste 10 Noroeste 0 -- -- 69
2019-07-29 23:00:00 24.6 3 Sudoeste 9 Oeste 0 -- -- 67
2019-07-29 22:00:00 27.1 0 Calma 9 Este 0 -- -- 58
2019-07-29 21:00:00 30.6 5 Este 13 Este 0 -- -- 43
2019-07-29 20:00:00 32.2 10 Este 23 Sudeste 0 -- -- 39
2019-07-29 19:00:00 32.8 13 Sudeste 34 Sudeste 0 -- -- 39
2019-07-29 18:00:00 33 17 Este 29 Este 0 -- -- 39
2019-07-29 17:00:00 32.8 18 Sudeste 38 Sudeste 0 -- -- 41
2019-07-29 16:00:00 32.7 19 Sudeste 33 Sudeste 0 -- -- 44
2019-07-29 15:00:00 34 20 Sudeste 32 Sudeste -- -- -- 43
2019-07-29 14:00:00 34.2 9 Sudeste 21 Sudeste 0 -- -- 34
2019-07-29 13:00:00 32.5 10 Sudeste 19 Sudeste 0 -- -- 38
2019-07-29 12:00:00 30.8 6 Sudeste 17 Sudeste 0 -- -- 42
2019-07-29 11:00:00 28.7 8 Sudeste 14 Sudeste 0 -- -- 45
2019-07-29 10:00:00 26.5 3 Noroeste 6 Noroeste 0 -- -- 49
2019-07-29 09:00:00 23.4 3 Oeste 5 Noroeste 0 -- -- 57
2019-07-29 08:00:00 20 4 Noroeste 9 Noroeste 0 -- -- 68
2019-07-29 07:00:00 18.5 3 Norte 10 Noroeste 0 -- -- 72
2019-07-29 06:00:00 19.3 5 Noroeste 10 Noroeste 0 -- -- 70
2019-07-29 05:00:00 19.3 3 Noroeste 12 Noroeste 0 -- -- 71
2019-07-29 04:00:00 19.6 6 Noroeste 13 Noroeste 0 -- -- 69
2019-07-29 03:00:00 19.8 7 Noroeste 11 Noroeste 0 -- -- 73
2019-07-29 02:00:00 20.1 5 Noroeste 10 Noroeste 0 -- -- 74
2019-07-29 01:00:00 20.3 5 Noroeste 11 Noroeste 0 -- -- 75
2019-07-29 00:00:00 20.5 8 Noroeste 10 Noroeste 0 -- -- 76
2019-07-28 23:00:00 21 3 Oeste 4 Noroeste 0 -- -- 76
2019-07-28 22:00:00 23.8 0 Calma 10 Este 0 -- -- 66
2019-07-28 21:00:00 25.5 7 Este 26 Este 0 -- -- 59
2019-07-28 20:00:00 27 14 Este 29 Este 0 -- -- 52
2019-07-28 19:00:00 28.7 17 Sudeste 32 Sudeste 0 -- -- 42
2019-07-28 18:00:00 29.1 17 Este 30 Sudeste 0 -- -- 34
2019-07-28 17:00:00 29.5 18 Este 36 Sudeste 0 -- -- 36
2019-07-28 16:00:00 29.8 22 Sudeste 36 Este 0 -- -- 36
2019-07-28 15:00:00 30.1 24 Sudeste 39 Sudeste 0 -- -- 35
2019-07-28 14:00:00 31.4 11 Sudeste 23 Sudeste 0 -- -- 26
2019-07-28 13:00:00 30.3 6 Sudoeste 17 Sudeste 0 -- -- 26
2019-07-28 12:00:00 28.9 9 Sur 24 Sudoeste 0 -- -- 30
2019-07-28 11:00:00 26.8 10 Oeste 21 Oeste 0 -- -- 34
2019-07-28 10:00:00 24.6 10 Oeste 27 Oeste 0 -- -- 41
2019-07-28 09:00:00 22.1 18 Noroeste 26 Oeste 0 -- -- 49
2019-07-28 08:00:00 20.1 4 Oeste 14 Oeste 0 -- -- 54
2019-07-28 07:00:00 19.4 6 Norte 15 Noroeste 0 -- -- 55
2019-07-28 06:00:00 18.9 8 Noroeste 16 Noroeste 0 -- -- 59
2019-07-28 05:00:00 20.4 10 Noroeste 19 Sudoeste 0 -- -- 55
2019-07-28 04:00:00 21.8 6 Nordeste 12 Nordeste 0 -- -- 51
2019-07-28 03:00:00 22.4 7 Noroeste 19 Oeste 0 -- -- 50
2019-07-28 02:00:00 20.1 7 Oeste 10 Oeste 0 -- -- 59
2019-07-28 01:00:00 23.1 3 Este 10 Noroeste 0 -- -- 51
2019-07-28 00:00:00 25.6 8 Norte 17 Norte 0 -- -- 42
2019-07-27 23:00:00 27 8 Norte 26 Norte 0 -- -- 40
2019-07-26 12:00:00 28.6 3 Noroeste 8 Sudoeste 0 -- -- 50
2019-07-26 11:00:00 27.3 4 Sudoeste 11 Sudoeste 0 -- -- 56
2019-07-26 10:00:00 26.5 0 Calma 5 Noroeste 0 -- -- 47
2019-07-26 09:00:00 23.8 3 Noroeste 11 Noroeste 0 -- -- 55
2019-07-26 08:00:00 21.5 8 Noroeste 12 Noroeste 0 -- -- 58
2019-07-26 07:00:00 20.2 4 Noroeste 12 Noroeste 0 -- -- 61
2019-07-26 06:00:00 20.5 7 Noroeste 13 Noroeste 0 -- -- 60
2019-07-26 05:00:00 20.7 5 Noroeste 13 Noroeste 0 -- -- 61
2019-07-26 04:00:00 21.1 5 Noroeste 13 Noroeste 0 -- -- 63
2019-07-26 03:00:00 22 6 Noroeste 10 Noroeste 0 -- -- 60
2019-07-26 02:00:00 21.7 8 Noroeste 10 Noroeste 0 -- -- 62
2019-07-26 01:00:00 22.5 7 Noroeste 12 Noroeste 0 -- -- 60
2019-07-26 00:00:00 23.1 3 Norte 9 Noroeste 0 -- -- 61